Aviation Digital Data Service (ADDS)

Output produced by METARs form (0539 UTC 20 September 2017)
found at http://www.aviationweather.gov/adds/metars/
 
EPGD 200530Z 30002KT 8000 NSC 07/06 Q1016
TAF EPGD 200530Z 2006/2106 VRB05KT 9999 BKN040 
     TEMPO 2007/2022 BKN025TCU 
     PROB40 
     TEMPO 2010/2020 SHRA BKN020CB 
     PROB40 2101/2106 1500 BR BKN005